sensor_id;sensor_type;location;lat;lon;timestamp;pressure;altitude;pressure_sealevel;temperature;humidity
46211;BME280;52144;48.040;-1.594;2023-03-26T00:01:42;99828.38;;;16.80;72.89
46211;BME280;52144;48.040;-1.594;2023-03-26T00:04:12;99825.44;;;16.41;70.33
46211;BME280;52144;48.040;-1.594;2023-03-26T00:06:40;99840.28;;;16.24;71.67
46211;BME280;52144;48.040;-1.594;2023-03-26T00:09:09;99858.19;;;16.03;71.50
46211;BME280;52144;48.040;-1.594;2023-03-26T00:11:41;99835.13;;;15.89;68.73
46211;BME280;52144;48.040;-1.594;2023-03-26T00:14:09;99874.34;;;16.24;67.14
46211;BME280;52144;48.040;-1.594;2023-03-26T00:16:39;99888.13;;;17.16;64.83
46211;BME280;52144;48.040;-1.594;2023-03-26T00:19:08;99904.63;;;16.37;66.13
46211;BME280;52144;48.040;-1.594;2023-03-26T00:21:36;99908.28;;;17.01;65.06
46211;BME280;52144;48.040;-1.594;2023-03-26T00:24:07;99908.88;;;15.85;67.94
46211;BME280;52144;48.040;-1.594;2023-03-26T00:26:35;99922.31;;;15.96;69.21
46211;BME280;52144;48.040;-1.594;2023-03-26T00:29:06;99926.34;;;15.91;67.75
46211;BME280;52144;48.040;-1.594;2023-03-26T00:31:35;99944.25;;;17.00;64.37
46211;BME280;52144;48.040;-1.594;2023-03-26T00:34:05;99949.31;;;17.14;62.87
46211;BME280;52144;48.040;-1.594;2023-03-26T00:36:33;99961.44;;;16.76;65.45
46211;BME280;52144;48.040;-1.594;2023-03-26T00:39:03;99955.75;;;16.03;67.30
46211;BME280;52144;48.040;-1.594;2023-03-26T00:41:31;99967.34;;;16.27;65.47
46211;BME280;52144;48.040;-1.594;2023-03-26T00:44:03;99971.63;;;16.29;68.05
46211;BME280;52144;48.040;-1.594;2023-03-26T00:46:32;99970.31;;;16.67;66.21
46211;BME280;52144;48.040;-1.594;2023-03-26T00:49:00;99959.38;;;16.80;64.85
46211;BME280;52144;48.040;-1.594;2023-03-26T00:51:29;99985.34;;;17.02;64.80
46211;BME280;52144;48.040;-1.594;2023-03-26T00:53:57;99980.03;;;16.79;65.81
46211;BME280;52144;48.040;-1.594;2023-03-26T00:56:25;99987.03;;;15.93;68.20
46211;BME280;52144;48.040;-1.594;2023-03-26T00:58:53;99993.16;;;17.05;63.21
46211;BME280;52144;48.040;-1.594;2023-03-26T01:01:22;99978.72;;;17.27;62.08
46211;BME280;52144;48.040;-1.594;2023-03-26T01:03:56;99992.72;;;16.45;64.68
46211;BME280;52144;48.040;-1.594;2023-03-26T01:06:36;100006.50;;;16.63;63.32
46211;BME280;52144;48.040;-1.594;2023-03-26T01:09:12;100011.34;;;17.13;61.37
46211;BME280;52144;48.040;-1.594;2023-03-26T01:11:41;100003.78;;;17.07;62.34
46211;BME280;52144;48.040;-1.594;2023-03-26T01:14:11;100010.34;;;16.93;63.49
46211;BME280;52144;48.040;-1.594;2023-03-26T01:16:44;100002.97;;;18.00;59.02
46211;BME280;52144;48.040;-1.594;2023-03-26T01:19:20;100011.44;;;16.90;62.63
46211;BME280;52144;48.040;-1.594;2023-03-26T01:21:50;100011.44;;;16.47;63.79
46211;BME280;52144;48.040;-1.594;2023-03-26T01:24:19;100010.97;;;17.38;61.62
46211;BME280;52144;48.040;-1.594;2023-03-26T01:27:05;100023.44;;;17.39;61.89
46211;BME280;52144;48.040;-1.594;2023-03-26T01:29:41;100026.84;;;17.62;61.36
46211;BME280;52144;48.040;-1.594;2023-03-26T01:32:19;100029.88;;;17.90;58.85
46211;BME280;52144;48.040;-1.594;2023-03-26T01:35:06;100033.78;;;17.02;61.67
46211;BME280;52144;48.040;-1.594;2023-03-26T01:37:43;100041.16;;;17.42;60.41
46211;BME280;52144;48.040;-1.594;2023-03-26T01:40:18;100037.53;;;17.85;60.83
46211;BME280;52144;48.040;-1.594;2023-03-26T01:42:54;100029.19;;;18.29;58.25
46211;BME280;52144;48.040;-1.594;2023-03-26T01:45:26;100037.91;;;18.01;57.63
46211;BME280;52144;48.040;-1.594;2023-03-26T01:47:55;100022.56;;;18.02;58.43
46211;BME280;52144;48.040;-1.594;2023-03-26T01:50:23;100030.78;;;17.16;60.74
46211;BME280;52144;48.040;-1.594;2023-03-26T01:52:50;100019.81;;;17.50;59.47
46211;BME280;52144;48.040;-1.594;2023-03-26T01:55:21;100017.19;;;17.81;57.89
46211;BME280;52144;48.040;-1.594;2023-03-26T01:57:58;100015.28;;;17.30;59.33
46211;BME280;52144;48.040;-1.594;2023-03-26T02:00:31;100015.97;;;17.43;58.43
46211;BME280;52144;48.040;-1.594;2023-03-26T02:03:07;100012.16;;;17.24;60.05
46211;BME280;52144;48.040;-1.594;2023-03-26T02:05:48;100008.78;;;17.74;57.31
46211;BME280;52144;48.040;-1.594;2023-03-26T02:08:22;100010.22;;;17.15;60.00
46211;BME280;52144;48.040;-1.594;2023-03-26T02:10:55;100012.47;;;17.73;59.19
46211;BME280;52144;48.040;-1.594;2023-03-26T02:13:24;100008.69;;;17.55;58.75
46211;BME280;52144;48.040;-1.594;2023-03-26T02:15:57;100006.63;;;17.47;58.70
46211;BME280;52144;48.040;-1.594;2023-03-26T02:18:26;100010.66;;;18.45;57.04
46211;BME280;52144;48.040;-1.594;2023-03-26T02:21:03;100007.78;;;17.96;56.74
46211;BME280;52144;48.040;-1.594;2023-03-26T02:23:32;100006.75;;;17.67;58.89
46211;BME280;52144;48.040;-1.594;2023-03-26T02:26:04;99997.75;;;18.68;55.77
46211;BME280;52144;48.040;-1.594;2023-03-26T02:28:33;100008.75;;;18.36;56.17
46211;BME280;52144;48.040;-1.594;2023-03-26T02:31:01;100001.25;;;17.89;56.66
46211;BME280;52144;48.040;-1.594;2023-03-26T02:33:29;99990.81;;;18.06;56.94
46211;BME280;52144;48.040;-1.594;2023-03-26T02:35:58;99990.75;;;18.36;55.95
46211;BME280;52144;48.040;-1.594;2023-03-26T02:38:28;99986.09;;;18.58;55.02
46211;BME280;52144;48.040;-1.594;2023-03-26T02:40:59;99996.41;;;17.93;56.33
46211;BME280;52144;48.040;-1.594;2023-03-26T02:43:28;100001.22;;;18.30;55.91
46211;BME280;52144;48.040;-1.594;2023-03-26T02:45:56;99996.94;;;18.17;56.07
46211;BME280;52144;48.040;-1.594;2023-03-26T02:48:24;99983.31;;;18.89;54.81
46211;BME280;52144;48.040;-1.594;2023-03-26T02:50:52;99979.47;;;17.81;58.40
46211;BME280;52144;48.040;-1.594;2023-03-26T02:53:21;99983.22;;;18.30;56.67
46211;BME280;52144;48.040;-1.594;2023-03-26T02:55:49;99978.78;;;18.19;56.90
46211;BME280;52144;48.040;-1.594;2023-03-26T02:58:17;99981.66;;;18.37;56.58
46211;BME280;52144;48.040;-1.594;2023-03-26T03:00:47;99980.53;;;18.30;56.80
46211;BME280;52144;48.040;-1.594;2023-03-26T03:03:16;99977.13;;;18.28;57.03
46211;BME280;52144;48.040;-1.594;2023-03-26T03:05:44;99963.91;;;17.63;59.87
46211;BME280;52144;48.040;-1.594;2023-03-26T03:08:13;99968.06;;;17.98;58.84
46211;BME280;52144;48.040;-1.594;2023-03-26T03:10:54;99961.84;;;17.04;60.22
46211;BME280;52144;48.040;-1.594;2023-03-26T03:13:22;99967.69;;;17.09;61.20
46211;BME280;52144;48.040;-1.594;2023-03-26T03:15:51;99966.06;;;17.91;58.88
46211;BME280;52144;48.040;-1.594;2023-03-26T03:18:19;99955.00;;;18.34;57.38
46211;BME280;52144;48.040;-1.594;2023-03-26T03:20:47;99957.44;;;17.76;58.96
46211;BME280;52144;48.040;-1.594;2023-03-26T03:23:15;99951.78;;;18.00;57.34
46211;BME280;52144;48.040;-1.594;2023-03-26T03:25:44;99958.56;;;17.94;58.29
46211;BME280;52144;48.040;-1.594;2023-03-26T03:28:11;99962.22;;;17.83;58.68
46211;BME280;52144;48.040;-1.594;2023-03-26T03:30:39;99965.78;;;17.42;60.60
46211;BME280;52144;48.040;-1.594;2023-03-26T03:33:09;99958.66;;;17.83;58.89
46211;BME280;52144;48.040;-1.594;2023-03-26T03:35:38;99955.59;;;18.67;57.59
46211;BME280;52144;48.040;-1.594;2023-03-26T03:38:09;99969.78;;;17.99;59.41
46211;BME280;52144;48.040;-1.594;2023-03-26T03:40:37;99956.69;;;18.35;57.88
46211;BME280;52144;48.040;-1.594;2023-03-26T03:43:05;99954.47;;;18.00;58.68
46211;BME280;52144;48.040;-1.594;2023-03-26T03:45:32;99950.09;;;18.09;58.72
46211;BME280;52144;48.040;-1.594;2023-03-26T03:48:00;99941.09;;;18.68;57.29
46211;BME280;52144;48.040;-1.594;2023-03-26T03:50:29;99934.84;;;18.58;57.57
46211;BME280;52144;48.040;-1.594;2023-03-26T03:53:01;99933.63;;;18.81;58.59
46211;BME280;52144;48.040;-1.594;2023-03-26T03:55:31;99945.53;;;19.08;57.93
46211;BME280;52144;48.040;-1.594;2023-03-26T03:57:59;99940.28;;;18.97;58.94
46211;BME280;52144;48.040;-1.594;2023-03-26T04:00:26;99944.91;;;18.36;61.01
46211;BME280;52144;48.040;-1.594;2023-03-26T04:02:56;99945.94;;;17.01;64.12
46211;BME280;52144;48.040;-1.594;2023-03-26T04:05:24;99945.50;;;16.52;67.75
46211;BME280;52144;48.040;-1.594;2023-03-26T04:07:53;99949.38;;;17.03;65.92
46211;BME280;52144;48.040;-1.594;2023-03-26T04:10:21;99942.03;;;16.29;70.49
46211;BME280;52144;48.040;-1.594;2023-03-26T04:12:48;99943.09;;;15.94;71.04
46211;BME280;52144;48.040;-1.594;2023-03-26T04:15:16;99949.31;;;16.06;71.72
46211;BME280;52144;48.040;-1.594;2023-03-26T04:17:44;99949.56;;;17.53;65.57
46211;BME280;52144;48.040;-1.594;2023-03-26T04:20:12;99927.25;;;17.20;66.40
46211;BME280;52144;48.040;-1.594;2023-03-26T04:22:41;99921.63;;;17.54;64.88
46211;BME280;52144;48.040;-1.594;2023-03-26T04:25:11;99914.28;;;16.40;66.38
46211;BME280;52144;48.040;-1.594;2023-03-26T04:27:41;99921.00;;;16.99;64.82
46211;BME280;52144;48.040;-1.594;2023-03-26T04:30:12;99916.84;;;16.74;63.74
46211;BME280;52144;48.040;-1.594;2023-03-26T04:32:42;99918.97;;;16.27;66.62
46211;BME280;52144;48.040;-1.594;2023-03-26T04:35:12;99907.50;;;16.13;66.14
46211;BME280;52144;48.040;-1.594;2023-03-26T04:37:42;99922.66;;;17.11;63.67
46211;BME280;52144;48.040;-1.594;2023-03-26T04:40:15;99913.72;;;16.14;65.25
46211;BME280;52144;48.040;-1.594;2023-03-26T04:42:43;99923.25;;;16.94;64.41
46211;BME280;52144;48.040;-1.594;2023-03-26T04:45:12;99916.47;;;17.41;61.04
46211;BME280;52144;48.040;-1.594;2023-03-26T04:47:40;99920.91;;;17.52;60.69
46211;BME280;52144;48.040;-1.594;2023-03-26T04:50:10;99931.06;;;18.00;59.32
46211;BME280;52144;48.040;-1.594;2023-03-26T04:52:38;99941.72;;;17.50;60.35
46211;BME280;52144;48.040;-1.594;2023-03-26T04:55:24;99953.38;;;17.30;60.67
46211;BME280;52144;48.040;-1.594;2023-03-26T04:57:56;99953.06;;;17.02;62.78
46211;BME280;52144;48.040;-1.594;2023-03-26T05:00:28;99958.63;;;17.31;61.78
46211;BME280;52144;48.040;-1.594;2023-03-26T05:02:56;99959.31;;;17.54;61.70
46211;BME280;52144;48.040;-1.594;2023-03-26T05:05:25;99960.09;;;17.14;62.76
46211;BME280;52144;48.040;-1.594;2023-03-26T05:07:55;99971.50;;;17.07;63.32
46211;BME280;52144;48.040;-1.594;2023-03-26T05:10:24;99962.91;;;16.80;63.60
46211;BME280;52144;48.040;-1.594;2023-03-26T05:12:52;99972.34;;;17.07;63.89
46211;BME280;52144;48.040;-1.594;2023-03-26T05:15:20;99964.28;;;17.07;62.76
46211;BME280;52144;48.040;-1.594;2023-03-26T05:17:48;99960.59;;;17.29;63.09
46211;BME280;52144;48.040;-1.594;2023-03-26T05:20:18;99961.81;;;17.46;60.66
46211;BME280;52144;48.040;-1.594;2023-03-26T05:22:47;99962.22;;;17.41;62.38
46211;BME280;52144;48.040;-1.594;2023-03-26T05:25:15;99963.75;;;17.55;61.00
46211;BME280;52144;48.040;-1.594;2023-03-26T05:27:45;99966.81;;;16.88;63.65
46211;BME280;52144;48.040;-1.594;2023-03-26T05:30:14;99978.50;;;17.40;62.05
46211;BME280;52144;48.040;-1.594;2023-03-26T05:32:42;99971.03;;;16.69;63.76
46211;BME280;52144;48.040;-1.594;2023-03-26T05:35:10;99971.56;;;16.52;63.74
46211;BME280;52144;48.040;-1.594;2023-03-26T05:37:38;99973.66;;;17.13;61.57
46211;BME280;52144;48.040;-1.594;2023-03-26T05:40:07;99970.41;;;17.30;61.09
46211;BME280;52144;48.040;-1.594;2023-03-26T05:42:38;99975.75;;;16.33;64.93
46211;BME280;52144;48.040;-1.594;2023-03-26T05:45:09;99981.50;;;17.16;62.00
46211;BME280;52144;48.040;-1.594;2023-03-26T05:47:38;99976.78;;;15.98;66.22
46211;BME280;52144;48.040;-1.594;2023-03-26T05:50:07;99977.88;;;16.18;66.39
46211;BME280;52144;48.040;-1.594;2023-03-26T05:52:35;99982.31;;;16.52;63.41
46211;BME280;52144;48.040;-1.594;2023-03-26T05:55:03;99982.19;;;16.97;61.58
46211;BME280;52144;48.040;-1.594;2023-03-26T05:57:32;99991.78;;;16.90;62.55
46211;BME280;52144;48.040;-1.594;2023-03-26T06:00:01;99997.59;;;16.51;64.10
46211;BME280;52144;48.040;-1.594;2023-03-26T06:02:31;100005.34;;;16.88;62.60
46211;BME280;52144;48.040;-1.594;2023-03-26T06:04:59;100005.69;;;16.95;61.88
46211;BME280;52144;48.040;-1.594;2023-03-26T06:07:28;100000.34;;;16.17;63.77
46211;BME280;52144;48.040;-1.594;2023-03-26T06:09:56;100002.59;;;16.56;63.28
46211;BME280;52144;48.040;-1.594;2023-03-26T06:12:24;99999.56;;;16.49;63.51
46211;BME280;52144;48.040;-1.594;2023-03-26T06:14:52;100006.41;;;16.42;62.83
46211;BME280;52144;48.040;-1.594;2023-03-26T06:17:19;100004.13;;;17.13;60.79
46211;BME280;52144;48.040;-1.594;2023-03-26T06:19:49;100006.91;;;16.91;60.27
46211;BME280;52144;48.040;-1.594;2023-03-26T06:22:16;100004.16;;;16.58;61.60
46211;BME280;52144;48.040;-1.594;2023-03-26T06:24:44;99992.34;;;16.61;61.01
46211;BME280;52144;48.040;-1.594;2023-03-26T06:27:12;99996.63;;;16.96;59.83
46211;BME280;52144;48.040;-1.594;2023-03-26T06:29:40;99994.31;;;16.91;60.94
46211;BME280;52144;48.040;-1.594;2023-03-26T06:32:07;99995.03;;;17.47;60.07
46211;BME280;52144;48.040;-1.594;2023-03-26T06:34:46;99995.28;;;17.43;58.80
46211;BME280;52144;48.040;-1.594;2023-03-26T06:37:15;99996.88;;;16.93;60.94
46211;BME280;52144;48.040;-1.594;2023-03-26T06:39:43;99989.72;;;16.82;61.96
46211;BME280;52144;48.040;-1.594;2023-03-26T06:42:11;99994.09;;;16.39;64.56
46211;BME280;52144;48.040;-1.594;2023-03-26T06:44:39;99997.53;;;16.74;63.45
46211;BME280;52144;48.040;-1.594;2023-03-26T06:47:06;99999.81;;;16.46;64.63
46211;BME280;52144;48.040;-1.594;2023-03-26T06:49:34;100010.16;;;16.62;64.44
46211;BME280;52144;48.040;-1.594;2023-03-26T06:52:03;100015.28;;;17.93;60.71
46211;BME280;52144;48.040;-1.594;2023-03-26T06:54:32;100005.50;;;17.50;62.06
46211;BME280;52144;48.040;-1.594;2023-03-26T06:57:00;100005.97;;;17.34;62.41
46211;BME280;52144;48.040;-1.594;2023-03-26T06:59:28;100002.50;;;17.43;61.35
46211;BME280;52144;48.040;-1.594;2023-03-26T07:01:56;100001.28;;;16.94;61.55
46211;BME280;52144;48.040;-1.594;2023-03-26T07:04:24;100005.13;;;17.33;62.49
46211;BME280;52144;48.040;-1.594;2023-03-26T07:06:52;100008.53;;;17.56;60.17
46211;BME280;52144;48.040;-1.594;2023-03-26T07:09:20;99995.94;;;17.15;61.28
46211;BME280;52144;48.040;-1.594;2023-03-26T07:11:49;99999.88;;;17.32;61.88
46211;BME280;52144;48.040;-1.594;2023-03-26T07:14:17;99994.91;;;17.79;60.87
46211;BME280;52144;48.040;-1.594;2023-03-26T07:16:44;99991.63;;;17.96;58.94
46211;BME280;52144;48.040;-1.594;2023-03-26T07:19:12;99990.59;;;17.45;61.23
46211;BME280;52144;48.040;-1.594;2023-03-26T07:21:40;99987.78;;;17.99;61.22
46211;BME280;52144;48.040;-1.594;2023-03-26T07:24:10;99984.41;;;18.07;60.26
46211;BME280;52144;48.040;-1.594;2023-03-26T07:26:47;99988.72;;;19.08;59.65
46211;BME280;52144;48.040;-1.594;2023-03-26T07:29:26;99988.44;;;18.92;58.80
46211;BME280;52144;48.040;-1.594;2023-03-26T07:32:02;99984.47;;;18.96;56.83
46211;BME280;52144;48.040;-1.594;2023-03-26T07:34:42;99994.28;;;17.65;62.55
46211;BME280;52144;48.040;-1.594;2023-03-26T07:37:22;99989.03;;;19.05;59.60
46211;BME280;52144;48.040;-1.594;2023-03-26T07:39:57;99986.53;;;19.60;56.87
46211;BME280;52144;48.040;-1.594;2023-03-26T07:42:36;99972.47;;;19.37;57.63
46211;BME280;52144;48.040;-1.594;2023-03-26T07:45:16;99975.25;;;18.79;58.09
46211;BME280;52144;48.040;-1.594;2023-03-26T07:47:46;99981.91;;;19.23;57.74
46211;BME280;52144;48.040;-1.594;2023-03-26T07:50:20;99984.81;;;19.59;56.58
46211;BME280;52144;48.040;-1.594;2023-03-26T07:52:49;99972.63;;;18.48;59.24
46211;BME280;52144;48.040;-1.594;2023-03-26T07:55:18;99980.47;;;18.80;59.54
46211;BME280;52144;48.040;-1.594;2023-03-26T07:57:58;99979.19;;;18.15;60.92
46211;BME280;52144;48.040;-1.594;2023-03-26T08:00:32;99983.31;;;19.28;57.97
46211;BME280;52144;48.040;-1.594;2023-03-26T08:03:25;99981.75;;;19.25;58.41
46211;BME280;52144;48.040;-1.594;2023-03-26T08:06:04;99982.16;;;18.72;59.35
46211;BME280;52144;48.040;-1.594;2023-03-26T08:08:41;99975.00;;;19.58;56.64
46211;BME280;52144;48.040;-1.594;2023-03-26T08:11:20;99970.16;;;19.72;57.80
46211;BME280;52144;48.040;-1.594;2023-03-26T08:13:58;99969.84;;;18.79;59.22
46211;BME280;52144;48.040;-1.594;2023-03-26T08:16:34;99979.47;;;19.11;59.85
46211;BME280;52144;48.040;-1.594;2023-03-26T08:19:09;99980.47;;;18.71;60.44
46211;BME280;52144;48.040;-1.594;2023-03-26T08:21:48;99971.25;;;19.12;60.49
46211;BME280;52144;48.040;-1.594;2023-03-26T08:24:23;99970.91;;;19.44;59.18
46211;BME280;52144;48.040;-1.594;2023-03-26T08:26:58;99963.22;;;18.33;63.32
46211;BME280;52144;48.040;-1.594;2023-03-26T08:29:34;99962.28;;;18.63;62.13
46211;BME280;52144;48.040;-1.594;2023-03-26T08:32:13;99987.91;;;18.28;63.94
46211;BME280;52144;48.040;-1.594;2023-03-26T08:34:41;99992.38;;;17.14;68.74
46211;BME280;52144;48.040;-1.594;2023-03-26T08:37:09;99989.22;;;15.65;73.41
46211;BME280;52144;48.040;-1.594;2023-03-26T08:39:37;99992.19;;;15.96;71.50
46211;BME280;52144;48.040;-1.594;2023-03-26T08:42:38;100003.16;;;14.89;74.31
46211;BME280;52144;48.040;-1.594;2023-03-26T08:45:27;100008.09;;;15.53;72.02
46211;BME280;52144;48.040;-1.594;2023-03-26T08:48:28;99998.97;;;16.34;66.86
46211;BME280;52144;48.040;-1.594;2023-03-26T08:51:32;99998.97;;;15.67;67.95
46211;BME280;52144;48.040;-1.594;2023-03-26T08:57:22;100026.34;;;15.83;68.52
46211;BME280;52144;48.040;-1.594;2023-03-26T09:03:15;100010.25;;;16.17;66.36
46211;BME280;52144;48.040;-1.594;2023-03-26T09:05:59;100007.63;;;16.49;66.45
46211;BME280;52144;48.040;-1.594;2023-03-26T09:12:06;100023.09;;;16.02;66.88
46211;BME280;52144;48.040;-1.594;2023-03-26T09:20:53;100022.72;;;18.41;56.08
46211;BME280;52144;48.040;-1.594;2023-03-26T09:23:59;100026.72;;;18.66;57.13
46211;BME280;52144;48.040;-1.594;2023-03-26T09:26:44;100041.66;;;18.70;55.96
46211;BME280;52144;48.040;-1.594;2023-03-26T09:35:39;100070.31;;;19.12;55.60
46211;BME280;52144;48.040;-1.594;2023-03-26T09:38:19;100061.03;;;19.43;54.58
46211;BME280;52144;48.040;-1.594;2023-03-26T09:40:56;100052.34;;;19.69;53.96
46211;BME280;52144;48.040;-1.594;2023-03-26T09:43:55;100038.25;;;19.95;53.65
46211;BME280;52144;48.040;-1.594;2023-03-26T09:46:35;100031.09;;;20.31;52.99
46211;BME280;52144;48.040;-1.594;2023-03-26T09:49:17;100040.06;;;19.94;53.55
46211;BME280;52144;48.040;-1.594;2023-03-26T09:52:13;100049.25;;;18.96;55.74
46211;BME280;52144;48.040;-1.594;2023-03-26T09:57:46;100038.13;;;19.57;55.97
46211;BME280;52144;48.040;-1.594;2023-03-26T10:00:29;100041.81;;;18.78;56.70
46211;BME280;52144;48.040;-1.594;2023-03-26T10:03:14;100048.00;;;18.50;58.15
46211;BME280;52144;48.040;-1.594;2023-03-26T10:06:01;100043.59;;;19.18;56.90
46211;BME280;52144;48.040;-1.594;2023-03-26T10:08:50;100031.38;;;20.38;54.21
46211;BME280;52144;48.040;-1.594;2023-03-26T10:11:31;100031.75;;;19.49;55.68
46211;BME280;52144;48.040;-1.594;2023-03-26T10:14:09;100024.06;;;20.11;53.63
46211;BME280;52144;48.040;-1.594;2023-03-26T10:16:49;100023.66;;;19.39;54.33
46211;BME280;52144;48.040;-1.594;2023-03-26T10:19:38;100039.88;;;20.43;54.04
46211;BME280;52144;48.040;-1.594;2023-03-26T10:22:21;100030.97;;;19.95;53.54
46211;BME280;52144;48.040;-1.594;2023-03-26T10:25:27;100030.28;;;20.21;52.91
46211;BME280;52144;48.040;-1.594;2023-03-26T10:28:07;100031.97;;;21.67;53.08
46211;BME280;52144;48.040;-1.594;2023-03-26T10:30:58;100031.53;;;20.64;52.74
46211;BME280;52144;48.040;-1.594;2023-03-26T10:33:33;100038.56;;;21.91;50.47
46211;BME280;52144;48.040;-1.594;2023-03-26T10:36:18;100025.56;;;22.79;50.30
46211;BME280;52144;48.040;-1.594;2023-03-26T10:39:01;100022.59;;;22.48;50.10
46211;BME280;52144;48.040;-1.594;2023-03-26T10:41:40;100030.91;;;24.35;47.27
46211;BME280;52144;48.040;-1.594;2023-03-26T10:44:29;100023.63;;;21.87;49.44
46211;BME280;52144;48.040;-1.594;2023-03-26T10:47:13;100020.22;;;22.45;50.86
46211;BME280;52144;48.040;-1.594;2023-03-26T10:53:00;100029.25;;;21.93;50.52
46211;BME280;52144;48.040;-1.594;2023-03-26T10:55:34;100020.63;;;20.92;50.82
46211;BME280;52144;48.040;-1.594;2023-03-26T10:58:12;100020.38;;;22.43;50.30
46211;BME280;52144;48.040;-1.594;2023-03-26T11:00:49;100025.19;;;22.66;50.10
46211;BME280;52144;48.040;-1.594;2023-03-26T11:03:32;100022.06;;;21.76;51.11
46211;BME280;52144;48.040;-1.594;2023-03-26T11:06:13;100024.31;;;22.15;50.65
46211;BME280;52144;48.040;-1.594;2023-03-26T11:08:50;100023.38;;;21.46;50.45
46211;BME280;52144;48.040;-1.594;2023-03-26T11:11:25;100030.00;;;22.30;51.21
46211;BME280;52144;48.040;-1.594;2023-03-26T11:13:56;100038.50;;;21.56;51.21
46211;BME280;52144;48.040;-1.594;2023-03-26T11:16:34;100039.78;;;21.44;50.54
46211;BME280;52144;48.040;-1.594;2023-03-26T11:19:09;100037.41;;;20.77;51.55
46211;BME280;52144;48.040;-1.594;2023-03-26T11:21:44;100046.03;;;20.91;51.04
46211;BME280;52144;48.040;-1.594;2023-03-26T11:24:39;100048.81;;;21.17;50.67
46211;BME280;52144;48.040;-1.594;2023-03-26T11:27:15;100054.16;;;21.27;49.49
46211;BME280;52144;48.040;-1.594;2023-03-26T11:29:56;100064.31;;;21.42;51.40
46211;BME280;52144;48.040;-1.594;2023-03-26T11:32:38;100063.41;;;21.78;50.19
46211;BME280;52144;48.040;-1.594;2023-03-26T11:35:15;100055.75;;;22.68;50.07
46211;BME280;52144;48.040;-1.594;2023-03-26T11:38:05;100054.16;;;21.89;51.12
46211;BME280;52144;48.040;-1.594;2023-03-26T11:40:39;100054.91;;;23.35;48.65
46211;BME280;52144;48.040;-1.594;2023-03-26T11:43:11;100060.22;;;22.09;51.10
46211;BME280;52144;48.040;-1.594;2023-03-26T11:45:42;100055.19;;;21.43;49.08
46211;BME280;52144;48.040;-1.594;2023-03-26T11:48:16;100058.16;;;21.76;50.78
46211;BME280;52144;48.040;-1.594;2023-03-26T11:50:47;100060.50;;;22.66;49.26
46211;BME280;52144;48.040;-1.594;2023-03-26T11:53:18;100063.03;;;23.59;47.13
46211;BME280;52144;48.040;-1.594;2023-03-26T11:55:51;100056.66;;;22.42;47.66
46211;BME280;52144;48.040;-1.594;2023-03-26T11:58:29;100053.50;;;19.76;51.98
46211;BME280;52144;48.040;-1.594;2023-03-26T12:01:03;100059.13;;;22.62;48.77
46211;BME280;52144;48.040;-1.594;2023-03-26T12:03:33;100059.63;;;21.35;51.73
46211;BME280;52144;48.040;-1.594;2023-03-26T12:06:04;100060.03;;;21.04;50.75
46211;BME280;52144;48.040;-1.594;2023-03-26T12:08:33;100060.94;;;21.67;49.26
46211;BME280;52144;48.040;-1.594;2023-03-26T12:11:06;100061.34;;;22.67;46.67
46211;BME280;52144;48.040;-1.594;2023-03-26T12:13:38;100077.59;;;22.24;47.45
46211;BME280;52144;48.040;-1.594;2023-03-26T12:16:11;100074.13;;;22.14;47.83
46211;BME280;52144;48.040;-1.594;2023-03-26T12:18:42;100070.69;;;23.23;48.11
46211;BME280;52144;48.040;-1.594;2023-03-26T12:21:14;100071.00;;;22.69;47.28
46211;BME280;52144;48.040;-1.594;2023-03-26T12:23:50;100075.09;;;23.57;46.35
46211;BME280;52144;48.040;-1.594;2023-03-26T12:26:36;100068.13;;;23.62;45.63
46211;BME280;52144;48.040;-1.594;2023-03-26T12:29:10;100074.91;;;23.17;47.09
46211;BME280;52144;48.040;-1.594;2023-03-26T12:31:56;100072.38;;;22.31;48.81
46211;BME280;52144;48.040;-1.594;2023-03-26T12:34:31;100072.22;;;23.50;45.89
46211;BME280;52144;48.040;-1.594;2023-03-26T12:37:02;100081.75;;;23.79;46.73
46211;BME280;52144;48.040;-1.594;2023-03-26T12:39:36;100077.50;;;24.57;44.96
46211;BME280;52144;48.040;-1.594;2023-03-26T12:42:27;100079.78;;;25.08;43.70
46211;BME280;52144;48.040;-1.594;2023-03-26T12:45:15;100083.03;;;25.34;44.50
46211;BME280;52144;48.040;-1.594;2023-03-26T12:47:43;100071.03;;;23.94;44.31
46211;BME280;52144;48.040;-1.594;2023-03-26T12:50:38;100080.66;;;24.21;44.87
46211;BME280;52144;48.040;-1.594;2023-03-26T12:53:21;100077.09;;;24.68;45.79
46211;BME280;52144;48.040;-1.594;2023-03-26T12:55:58;100082.69;;;24.19;44.27
46211;BME280;52144;48.040;-1.594;2023-03-26T13:01:30;100085.41;;;25.06;43.82
46211;BME280;52144;48.040;-1.594;2023-03-26T13:04:13;100085.75;;;24.72;44.53
46211;BME280;52144;48.040;-1.594;2023-03-26T13:06:47;100091.22;;;24.08;45.48
46211;BME280;52144;48.040;-1.594;2023-03-26T13:09:46;100081.59;;;24.53;42.70
46211;BME280;52144;48.040;-1.594;2023-03-26T13:12:26;100087.63;;;25.34;42.77
46211;BME280;52144;48.040;-1.594;2023-03-26T13:17:59;100094.31;;;25.92;45.17
46211;BME280;52144;48.040;-1.594;2023-03-26T13:20:46;100098.41;;;24.56;42.61
46211;BME280;52144;48.040;-1.594;2023-03-26T13:23:26;100095.09;;;25.09;43.41
46211;BME280;52144;48.040;-1.594;2023-03-26T13:26:03;100103.38;;;25.70;41.43
46211;BME280;52144;48.040;-1.594;2023-03-26T13:28:41;100099.50;;;25.64;41.92
46211;BME280;52144;48.040;-1.594;2023-03-26T13:31:17;100106.31;;;26.21;40.89
46211;BME280;52144;48.040;-1.594;2023-03-26T13:33:55;100099.63;;;26.23;40.78
46211;BME280;52144;48.040;-1.594;2023-03-26T13:36:32;100118.75;;;26.38;41.77
46211;BME280;52144;48.040;-1.594;2023-03-26T13:39:23;100117.44;;;25.04;42.72
46211;BME280;52144;48.040;-1.594;2023-03-26T13:42:08;100125.00;;;24.38;42.81
46211;BME280;52144;48.040;-1.594;2023-03-26T13:44:49;100139.22;;;23.92;43.00
46211;BME280;52144;48.040;-1.594;2023-03-26T13:47:33;100140.38;;;23.65;44.90
46211;BME280;52144;48.040;-1.594;2023-03-26T13:50:06;100154.69;;;23.83;45.90
46211;BME280;52144;48.040;-1.594;2023-03-26T13:52:42;100179.28;;;21.12;51.99
46211;BME280;52144;48.040;-1.594;2023-03-26T13:55:21;100189.78;;;21.25;52.62